sensor_id;sensor_type;location;lat;lon;timestamp;temperature;humidity
2447;DHT22;26430;48.818;9.244;2022-08-03T00:01:04;22.80;98.90
2447;DHT22;26430;48.818;9.244;2022-08-03T00:03:30;22.70;99.20
2447;DHT22;26430;48.818;9.244;2022-08-03T00:05:56;22.80;99.40
2447;DHT22;26430;48.818;9.244;2022-08-03T00:08:22;22.90;99.20
2447;DHT22;26430;48.818;9.244;2022-08-03T00:10:48;22.90;99.80
2447;DHT22;26430;48.818;9.244;2022-08-03T00:13:13;22.90;99.90
2447;DHT22;26430;48.818;9.244;2022-08-03T00:15:40;23.00;99.90
2447;DHT22;26430;48.818;9.244;2022-08-03T00:18:07;23.00;99.90
2447;DHT22;26430;48.818;9.244;2022-08-03T00:20:34;23.00;99.90
2447;DHT22;26430;48.818;9.244;2022-08-03T00:22:59;22.30;99.90
2447;DHT22;26430;48.818;9.244;2022-08-03T00:25:25;22.20;99.90
2447;DHT22;26430;48.818;9.244;2022-08-03T00:27:51;22.20;99.90
2447;DHT22;26430;48.818;9.244;2022-08-03T00:30:17;22.20;99.90
2447;DHT22;26430;48.818;9.244;2022-08-03T00:32:42;22.20;99.90
2447;DHT22;26430;48.818;9.244;2022-08-03T00:35:08;22.30;99.90
2447;DHT22;26430;48.818;9.244;2022-08-03T00:37:34;22.40;99.90
2447;DHT22;26430;48.818;9.244;2022-08-03T00:39:59;22.50;99.90
2447;DHT22;26430;48.818;9.244;2022-08-03T00:42:25;22.50;99.90
2447;DHT22;26430;48.818;9.244;2022-08-03T00:44:51;21.80;99.90
2447;DHT22;26430;48.818;9.244;2022-08-03T00:47:16;21.90;99.90
2447;DHT22;26430;48.818;9.244;2022-08-03T00:49:42;22.00;99.90
2447;DHT22;26430;48.818;9.244;2022-08-03T00:52:09;21.90;99.90
2447;DHT22;26430;48.818;9.244;2022-08-03T00:54:38;22.00;99.90
2447;DHT22;26430;48.818;9.244;2022-08-03T00:57:05;22.00;99.90
2447;DHT22;26430;48.818;9.244;2022-08-03T00:59:31;21.90;99.90
2447;DHT22;26430;48.818;9.244;2022-08-03T01:01:57;21.90;99.90
2447;DHT22;26430;48.818;9.244;2022-08-03T01:04:22;22.00;99.90
2447;DHT22;26430;48.818;9.244;2022-08-03T01:06:55;21.90;99.90
2447;DHT22;26430;48.818;9.244;2022-08-03T01:09:51;21.70;99.90
2447;DHT22;26430;48.818;9.244;2022-08-03T01:12:31;21.80;99.90
2447;DHT22;26430;48.818;9.244;2022-08-03T01:15:02;22.00;99.90
2447;DHT22;26430;48.818;9.244;2022-08-03T01:17:47;22.00;99.90
2447;DHT22;26430;48.818;9.244;2022-08-03T01:20:16;21.90;99.90
2447;DHT22;26430;48.818;9.244;2022-08-03T01:26:08;21.90;99.90
2447;DHT22;26430;48.818;9.244;2022-08-03T01:29:05;21.80;99.90
2447;DHT22;26430;48.818;9.244;2022-08-03T01:31:47;21.80;99.90
2447;DHT22;26430;48.818;9.244;2022-08-03T01:34:19;21.80;99.90
2447;DHT22;26430;48.818;9.244;2022-08-03T01:36:52;21.80;99.90
2447;DHT22;26430;48.818;9.244;2022-08-03T01:39:22;21.80;99.90
2447;DHT22;26430;48.818;9.244;2022-08-03T01:41:54;21.70;99.90
2447;DHT22;26430;48.818;9.244;2022-08-03T01:44:26;21.70;99.90
2447;DHT22;26430;48.818;9.244;2022-08-03T01:46:59;21.70;99.90
2447;DHT22;26430;48.818;9.244;2022-08-03T01:49:26;21.90;99.90
2447;DHT22;26430;48.818;9.244;2022-08-03T01:51:53;22.00;99.90
2447;DHT22;26430;48.818;9.244;2022-08-03T01:54:21;22.00;99.90
2447;DHT22;26430;48.818;9.244;2022-08-03T01:56:48;21.90;99.90
2447;DHT22;26430;48.818;9.244;2022-08-03T01:59:18;21.70;99.90
2447;DHT22;26430;48.818;9.244;2022-08-03T02:01:45;21.60;99.90
2447;DHT22;26430;48.818;9.244;2022-08-03T02:04:14;21.60;99.90
2447;DHT22;26430;48.818;9.244;2022-08-03T02:06:44;21.60;99.90
2447;DHT22;26430;48.818;9.244;2022-08-03T02:09:12;21.40;99.90
2447;DHT22;26430;48.818;9.244;2022-08-03T02:11:39;21.40;99.90
2447;DHT22;26430;48.818;9.244;2022-08-03T02:14:07;21.30;99.90
2447;DHT22;26430;48.818;9.244;2022-08-03T02:16:34;21.20;99.90
2447;DHT22;26430;48.818;9.244;2022-08-03T02:19:03;21.20;99.90
2447;DHT22;26430;48.818;9.244;2022-08-03T02:21:34;21.20;99.90
2447;DHT22;26430;48.818;9.244;2022-08-03T02:24:01;21.20;99.90
2447;DHT22;26430;48.818;9.244;2022-08-03T02:26:29;21.10;99.90
2447;DHT22;26430;48.818;9.244;2022-08-03T02:28:58;21.10;99.90
2447;DHT22;26430;48.818;9.244;2022-08-03T02:31:29;21.00;99.90
2447;DHT22;26430;48.818;9.244;2022-08-03T02:34:02;21.00;99.90
2447;DHT22;26430;48.818;9.244;2022-08-03T02:36:30;21.00;99.90
2447;DHT22;26430;48.818;9.244;2022-08-03T02:38:59;21.00;99.90
2447;DHT22;26430;48.818;9.244;2022-08-03T02:41:34;21.00;99.90
2447;DHT22;26430;48.818;9.244;2022-08-03T02:44:04;21.10;99.90
2447;DHT22;26430;48.818;9.244;2022-08-03T02:46:35;21.00;99.90
2447;DHT22;26430;48.818;9.244;2022-08-03T02:49:03;21.00;99.90
2447;DHT22;26430;48.818;9.244;2022-08-03T02:51:32;21.20;99.90
2447;DHT22;26430;48.818;9.244;2022-08-03T02:54:01;21.20;99.90
2447;DHT22;26430;48.818;9.244;2022-08-03T02:56:28;21.20;99.90
2447;DHT22;26430;48.818;9.244;2022-08-03T02:58:55;21.20;99.90
2447;DHT22;26430;48.818;9.244;2022-08-03T03:01:22;21.10;99.90
2447;DHT22;26430;48.818;9.244;2022-08-03T03:03:50;21.00;99.90
2447;DHT22;26430;48.818;9.244;2022-08-03T03:06:17;20.80;99.90
2447;DHT22;26430;48.818;9.244;2022-08-03T03:08:45;20.60;99.90
2447;DHT22;26430;48.818;9.244;2022-08-03T03:11:12;20.60;99.90
2447;DHT22;26430;48.818;9.244;2022-08-03T03:13:40;20.40;99.90
2447;DHT22;26430;48.818;9.244;2022-08-03T03:16:07;20.40;99.90
2447;DHT22;26430;48.818;9.244;2022-08-03T03:18:33;20.40;99.90
2447;DHT22;26430;48.818;9.244;2022-08-03T03:21:03;20.30;99.90
2447;DHT22;26430;48.818;9.244;2022-08-03T03:23:29;20.30;99.90
2447;DHT22;26430;48.818;9.244;2022-08-03T03:25:56;20.40;99.90
2447;DHT22;26430;48.818;9.244;2022-08-03T03:28:23;20.50;99.90
2447;DHT22;26430;48.818;9.244;2022-08-03T03:30:49;20.40;99.90
2447;DHT22;26430;48.818;9.244;2022-08-03T03:33:15;20.40;99.90
2447;DHT22;26430;48.818;9.244;2022-08-03T03:35:42;19.90;99.90
2447;DHT22;26430;48.818;9.244;2022-08-03T03:38:10;19.60;99.90
2447;DHT22;26430;48.818;9.244;2022-08-03T03:40:37;19.40;99.90
2447;DHT22;26430;48.818;9.244;2022-08-03T03:43:06;19.50;99.90
2447;DHT22;26430;48.818;9.244;2022-08-03T03:45:33;19.60;99.90
2447;DHT22;26430;48.818;9.244;2022-08-03T03:48:03;19.70;99.90
2447;DHT22;26430;48.818;9.244;2022-08-03T03:50:30;19.70;99.90
2447;DHT22;26430;48.818;9.244;2022-08-03T03:52:56;19.70;99.90
2447;DHT22;26430;48.818;9.244;2022-08-03T03:55:23;19.80;99.90
2447;DHT22;26430;48.818;9.244;2022-08-03T03:57:49;19.90;99.90
2447;DHT22;26430;48.818;9.244;2022-08-03T04:00:16;19.90;99.90
2447;DHT22;26430;48.818;9.244;2022-08-03T04:02:43;19.90;99.90
2447;DHT22;26430;48.818;9.244;2022-08-03T04:05:09;19.90;99.90
2447;DHT22;26430;48.818;9.244;2022-08-03T04:08:06;19.90;99.90
2447;DHT22;26430;48.818;9.244;2022-08-03T04:13:51;20.10;99.90
2447;DHT22;26430;48.818;9.244;2022-08-03T04:16:20;20.10;99.90
2447;DHT22;26430;48.818;9.244;2022-08-03T04:18:51;20.10;99.90
2447;DHT22;26430;48.818;9.244;2022-08-03T04:21:18;20.10;99.90
2447;DHT22;26430;48.818;9.244;2022-08-03T04:23:48;20.10;99.90
2447;DHT22;26430;48.818;9.244;2022-08-03T04:26:20;20.00;99.90
2447;DHT22;26430;48.818;9.244;2022-08-03T04:28:47;20.00;99.90
2447;DHT22;26430;48.818;9.244;2022-08-03T04:31:16;20.00;99.90
2447;DHT22;26430;48.818;9.244;2022-08-03T04:33:43;19.80;99.90
2447;DHT22;26430;48.818;9.244;2022-08-03T04:36:15;19.80;99.90
2447;DHT22;26430;48.818;9.244;2022-08-03T04:39:09;19.90;99.90
2447;DHT22;26430;48.818;9.244;2022-08-03T04:41:37;19.80;99.90
2447;DHT22;26430;48.818;9.244;2022-08-03T04:44:04;19.90;99.90
2447;DHT22;26430;48.818;9.244;2022-08-03T04:46:38;19.90;99.90
2447;DHT22;26430;48.818;9.244;2022-08-03T04:49:05;20.00;99.90
2447;DHT22;26430;48.818;9.244;2022-08-03T04:51:31;20.10;99.90
2447;DHT22;26430;48.818;9.244;2022-08-03T04:53:59;20.20;99.90
2447;DHT22;26430;48.818;9.244;2022-08-03T04:56:25;20.30;99.90
2447;DHT22;26430;48.818;9.244;2022-08-03T04:58:51;20.30;99.90
2447;DHT22;26430;48.818;9.244;2022-08-03T05:01:18;20.10;99.90
2447;DHT22;26430;48.818;9.244;2022-08-03T05:03:45;19.60;99.90
2447;DHT22;26430;48.818;9.244;2022-08-03T05:06:11;19.70;99.90
2447;DHT22;26430;48.818;9.244;2022-08-03T05:08:37;19.50;99.90
2447;DHT22;26430;48.818;9.244;2022-08-03T05:11:03;19.30;99.90
2447;DHT22;26430;48.818;9.244;2022-08-03T05:13:28;19.20;99.90
2447;DHT22;26430;48.818;9.244;2022-08-03T05:15:54;19.30;99.90
2447;DHT22;26430;48.818;9.244;2022-08-03T05:18:20;19.20;99.90
2447;DHT22;26430;48.818;9.244;2022-08-03T05:20:46;19.30;99.90
2447;DHT22;26430;48.818;9.244;2022-08-03T05:23:11;19.30;99.90
2447;DHT22;26430;48.818;9.244;2022-08-03T05:25:37;19.40;99.90
2447;DHT22;26430;48.818;9.244;2022-08-03T05:28:03;19.40;99.90
2447;DHT22;26430;48.818;9.244;2022-08-03T05:30:29;19.50;99.90
2447;DHT22;26430;48.818;9.244;2022-08-03T05:32:54;19.50;99.90
2447;DHT22;26430;48.818;9.244;2022-08-03T05:35:20;19.50;99.90
2447;DHT22;26430;48.818;9.244;2022-08-03T05:37:46;19.60;99.90
2447;DHT22;26430;48.818;9.244;2022-08-03T05:40:12;19.70;99.90
2447;DHT22;26430;48.818;9.244;2022-08-03T05:42:37;19.70;99.90
2447;DHT22;26430;48.818;9.244;2022-08-03T05:45:04;19.90;99.90
2447;DHT22;26430;48.818;9.244;2022-08-03T05:47:40;20.00;99.90
2447;DHT22;26430;48.818;9.244;2022-08-03T05:50:06;20.00;99.90
2447;DHT22;26430;48.818;9.244;2022-08-03T05:52:32;20.10;99.90
2447;DHT22;26430;48.818;9.244;2022-08-03T05:54:58;20.20;99.90
2447;DHT22;26430;48.818;9.244;2022-08-03T05:57:24;20.30;99.90
2447;DHT22;26430;48.818;9.244;2022-08-03T05:59:50;20.30;99.90
2447;DHT22;26430;48.818;9.244;2022-08-03T06:02:16;20.40;99.90
2447;DHT22;26430;48.818;9.244;2022-08-03T06:04:41;20.50;99.90
2447;DHT22;26430;48.818;9.244;2022-08-03T06:07:07;20.50;99.90
2447;DHT22;26430;48.818;9.244;2022-08-03T06:09:32;20.50;99.90
2447;DHT22;26430;48.818;9.244;2022-08-03T06:11:58;20.50;99.90
2447;DHT22;26430;48.818;9.244;2022-08-03T06:14:24;20.60;99.90
2447;DHT22;26430;48.818;9.244;2022-08-03T06:16:49;20.60;99.90
2447;DHT22;26430;48.818;9.244;2022-08-03T06:19:15;20.60;99.90
2447;DHT22;26430;48.818;9.244;2022-08-03T06:21:41;20.70;99.90
2447;DHT22;26430;48.818;9.244;2022-08-03T06:24:06;20.80;99.90
2447;DHT22;26430;48.818;9.244;2022-08-03T06:26:32;20.90;99.90
2447;DHT22;26430;48.818;9.244;2022-08-03T06:28:58;21.00;99.90
2447;DHT22;26430;48.818;9.244;2022-08-03T06:31:26;21.00;99.90
2447;DHT22;26430;48.818;9.244;2022-08-03T06:33:54;21.10;99.90
2447;DHT22;26430;48.818;9.244;2022-08-03T06:36:19;21.10;99.90
2447;DHT22;26430;48.818;9.244;2022-08-03T06:38:45;21.30;99.90
2447;DHT22;26430;48.818;9.244;2022-08-03T06:41:11;21.30;99.90
2447;DHT22;26430;48.818;9.244;2022-08-03T06:43:36;21.40;99.90
2447;DHT22;26430;48.818;9.244;2022-08-03T06:46:03;21.60;99.90
2447;DHT22;26430;48.818;9.244;2022-08-03T06:48:30;21.70;99.90
2447;DHT22;26430;48.818;9.244;2022-08-03T06:50:56;21.70;99.90
2447;DHT22;26430;48.818;9.244;2022-08-03T06:53:22;21.80;99.90
2447;DHT22;26430;48.818;9.244;2022-08-03T06:55:48;21.80;99.90
2447;DHT22;26430;48.818;9.244;2022-08-03T06:58:13;21.90;99.90
2447;DHT22;26430;48.818;9.244;2022-08-03T07:00:39;22.00;99.90
2447;DHT22;26430;48.818;9.244;2022-08-03T07:03:04;22.00;99.90
2447;DHT22;26430;48.818;9.244;2022-08-03T07:05:30;22.10;99.90
2447;DHT22;26430;48.818;9.244;2022-08-03T07:07:57;22.20;99.90
2447;DHT22;26430;48.818;9.244;2022-08-03T07:10:24;22.30;99.90
2447;DHT22;26430;48.818;9.244;2022-08-03T07:12:50;22.30;99.90
2447;DHT22;26430;48.818;9.244;2022-08-03T07:15:16;22.40;99.90
2447;DHT22;26430;48.818;9.244;2022-08-03T07:17:43;22.50;99.90
2447;DHT22;26430;48.818;9.244;2022-08-03T07:20:09;22.60;99.90
2447;DHT22;26430;48.818;9.244;2022-08-03T07:22:34;22.70;99.90
2447;DHT22;26430;48.818;9.244;2022-08-03T07:25:00;22.90;99.90
2447;DHT22;26430;48.818;9.244;2022-08-03T07:27:26;23.00;99.90
2447;DHT22;26430;48.818;9.244;2022-08-03T07:29:54;23.10;99.90
2447;DHT22;26430;48.818;9.244;2022-08-03T07:32:19;23.30;99.90
2447;DHT22;26430;48.818;9.244;2022-08-03T07:34:45;23.40;99.90
2447;DHT22;26430;48.818;9.244;2022-08-03T07:37:11;23.40;99.90
2447;DHT22;26430;48.818;9.244;2022-08-03T07:39:36;23.50;99.90
2447;DHT22;26430;48.818;9.244;2022-08-03T07:42:02;23.70;99.90
2447;DHT22;26430;48.818;9.244;2022-08-03T07:44:28;23.80;99.90
2447;DHT22;26430;48.818;9.244;2022-08-03T07:46:56;23.90;99.90
2447;DHT22;26430;48.818;9.244;2022-08-03T07:49:22;24.00;99.90
2447;DHT22;26430;48.818;9.244;2022-08-03T07:51:47;24.20;99.90
2447;DHT22;26430;48.818;9.244;2022-08-03T07:54:33;24.20;99.90
2447;DHT22;26430;48.818;9.244;2022-08-03T07:56:59;24.30;99.90
2447;DHT22;26430;48.818;9.244;2022-08-03T07:59:24;24.40;99.90
2447;DHT22;26430;48.818;9.244;2022-08-03T08:01:50;24.50;99.90
2447;DHT22;26430;48.818;9.244;2022-08-03T08:04:18;24.60;99.90
2447;DHT22;26430;48.818;9.244;2022-08-03T08:06:44;24.70;99.90
2447;DHT22;26430;48.818;9.244;2022-08-03T08:09:09;24.80;99.90
2447;DHT22;26430;48.818;9.244;2022-08-03T08:11:36;24.90;99.90
2447;DHT22;26430;48.818;9.244;2022-08-03T08:14:02;24.90;99.90
2447;DHT22;26430;48.818;9.244;2022-08-03T08:16:29;25.00;99.90
2447;DHT22;26430;48.818;9.244;2022-08-03T08:18:54;25.20;99.90
2447;DHT22;26430;48.818;9.244;2022-08-03T08:21:20;25.20;99.90
2447;DHT22;26430;48.818;9.244;2022-08-03T08:23:46;25.30;99.90
2447;DHT22;26430;48.818;9.244;2022-08-03T08:26:12;25.40;99.90
2447;DHT22;26430;48.818;9.244;2022-08-03T08:28:38;25.60;99.90
2447;DHT22;26430;48.818;9.244;2022-08-03T08:31:03;25.70;99.90
2447;DHT22;26430;48.818;9.244;2022-08-03T08:33:29;25.80;99.90
2447;DHT22;26430;48.818;9.244;2022-08-03T08:35:55;26.00;99.90
2447;DHT22;26430;48.818;9.244;2022-08-03T08:38:21;26.20;99.90
2447;DHT22;26430;48.818;9.244;2022-08-03T08:40:48;26.20;99.90
2447;DHT22;26430;48.818;9.244;2022-08-03T08:43:14;26.40;99.90
2447;DHT22;26430;48.818;9.244;2022-08-03T08:45:40;26.40;99.90
2447;DHT22;26430;48.818;9.244;2022-08-03T08:48:06;26.50;99.90
2447;DHT22;26430;48.818;9.244;2022-08-03T08:50:34;26.50;99.90
2447;DHT22;26430;48.818;9.244;2022-08-03T08:53:02;26.60;99.90
2447;DHT22;26430;48.818;9.244;2022-08-03T08:55:28;26.60;99.90
2447;DHT22;26430;48.818;9.244;2022-08-03T08:58:01;26.90;99.90
2447;DHT22;26430;48.818;9.244;2022-08-03T09:00:29;26.90;99.90
2447;DHT22;26430;48.818;9.244;2022-08-03T09:02:55;26.90;99.90
2447;DHT22;26430;48.818;9.244;2022-08-03T09:05:21;27.00;99.90
2447;DHT22;26430;48.818;9.244;2022-08-03T09:07:48;27.00;99.90
2447;DHT22;26430;48.818;9.244;2022-08-03T09:10:16;27.20;99.90
2447;DHT22;26430;48.818;9.244;2022-08-03T09:12:48;27.30;99.90
2447;DHT22;26430;48.818;9.244;2022-08-03T09:15:22;27.40;99.90
2447;DHT22;26430;48.818;9.244;2022-08-03T09:17:50;27.70;99.90
2447;DHT22;26430;48.818;9.244;2022-08-03T09:20:16;27.50;99.90
2447;DHT22;26430;48.818;9.244;2022-08-03T09:25:27;27.70;99.50
2447;DHT22;26430;48.818;9.244;2022-08-03T09:27:53;27.90;99.90
2447;DHT22;26430;48.818;9.244;2022-08-03T09:30:18;28.10;99.90
2447;DHT22;26430;48.818;9.244;2022-08-03T09:32:45;28.10;99.00
2447;DHT22;26430;48.818;9.244;2022-08-03T09:35:12;28.00;99.50
2447;DHT22;26430;48.818;9.244;2022-08-03T09:37:38;28.10;98.30
2447;DHT22;26430;48.818;9.244;2022-08-03T09:40:05;28.20;97.70
2447;DHT22;26430;48.818;9.244;2022-08-03T09:42:31;28.20;97.70
2447;DHT22;26430;48.818;9.244;2022-08-03T09:44:59;28.20;97.40
2447;DHT22;26430;48.818;9.244;2022-08-03T09:47:35;28.50;97.40
2447;DHT22;26430;48.818;9.244;2022-08-03T09:50:06;28.50;98.00
2447;DHT22;26430;48.818;9.244;2022-08-03T09:54:58;28.50;97.50
2447;DHT22;26430;48.818;9.244;2022-08-03T09:57:25;28.80;97.20
2447;DHT22;26430;48.818;9.244;2022-08-03T09:59:52;29.10;96.60
2447;DHT22;26430;48.818;9.244;2022-08-03T10:02:23;29.40;95.90
2447;DHT22;26430;48.818;9.244;2022-08-03T10:04:49;29.50;96.10
2447;DHT22;26430;48.818;9.244;2022-08-03T10:07:19;29.50;95.10
2447;DHT22;26430;48.818;9.244;2022-08-03T10:10:01;29.60;93.70
2447;DHT22;26430;48.818;9.244;2022-08-03T10:12:28;29.40;93.30
2447;DHT22;26430;48.818;9.244;2022-08-03T10:14:54;29.40;92.50
2447;DHT22;26430;48.818;9.244;2022-08-03T10:17:21;29.50;93.90
2447;DHT22;26430;48.818;9.244;2022-08-03T10:19:47;29.70;93.00
2447;DHT22;26430;48.818;9.244;2022-08-03T10:22:21;29.80;91.40
2447;DHT22;26430;48.818;9.244;2022-08-03T10:25:06;29.90;91.80
2447;DHT22;26430;48.818;9.244;2022-08-03T10:27:40;30.00;91.20
2447;DHT22;26430;48.818;9.244;2022-08-03T10:30:08;30.70;91.00
2447;DHT22;26430;48.818;9.244;2022-08-03T10:32:40;31.60;86.30
2447;DHT22;26430;48.818;9.244;2022-08-03T10:35:10;32.10;84.90
2447;DHT22;26430;48.818;9.244;2022-08-03T10:37:40;32.60;81.50
2447;DHT22;26430;48.818;9.244;2022-08-03T10:40:07;32.50;78.00
2447;DHT22;26430;48.818;9.244;2022-08-03T10:42:34;32.20;77.30
2447;DHT22;26430;48.818;9.244;2022-08-03T10:45:08;32.40;78.10
2447;DHT22;26430;48.818;9.244;2022-08-03T10:47:38;32.20;75.70
2447;DHT22;26430;48.818;9.244;2022-08-03T10:50:05;31.90;77.20
2447;DHT22;26430;48.818;9.244;2022-08-03T10:52:31;31.60;77.00
2447;DHT22;26430;48.818;9.244;2022-08-03T10:54:57;31.60;77.20
2447;DHT22;26430;48.818;9.244;2022-08-03T11:00:16;31.90;76.70
2447;DHT22;26430;48.818;9.244;2022-08-03T11:03:04;31.80;76.80
2447;DHT22;26430;48.818;9.244;2022-08-03T11:05:33;31.80;75.40
2447;DHT22;26430;48.818;9.244;2022-08-03T11:08:35;31.70;76.80
2447;DHT22;26430;48.818;9.244;2022-08-03T11:16:22;32.60;73.90
2447;DHT22;26430;48.818;9.244;2022-08-03T11:18:55;32.60;74.50
2447;DHT22;26430;48.818;9.244;2022-08-03T11:27:19;32.40;74.00
2447;DHT22;26430;48.818;9.244;2022-08-03T11:40:36;33.30;72.60
2447;DHT22;26430;48.818;9.244;2022-08-03T11:43:03;32.90;70.50
2447;DHT22;26430;48.818;9.244;2022-08-03T11:45:29;33.30;72.60
2447;DHT22;26430;48.818;9.244;2022-08-03T11:47:56;33.50;70.70
2447;DHT22;26430;48.818;9.244;2022-08-03T11:50:23;33.30;68.20
2447;DHT22;26430;48.818;9.244;2022-08-03T11:52:50;33.20;69.50
2447;DHT22;26430;48.818;9.244;2022-08-03T11:55:19;33.40;68.90
2447;DHT22;26430;48.818;9.244;2022-08-03T11:57:46;33.60;69.10
2447;DHT22;26430;48.818;9.244;2022-08-03T12:03:04;33.30;65.70
2447;DHT22;26430;48.818;9.244;2022-08-03T12:05:49;33.60;68.20
2447;DHT22;26430;48.818;9.244;2022-08-03T12:10:52;33.60;67.40
2447;DHT22;26430;48.818;9.244;2022-08-03T12:13:19;33.30;68.30
2447;DHT22;26430;48.818;9.244;2022-08-03T12:15:56;33.50;66.10
2447;DHT22;26430;48.818;9.244;2022-08-03T12:18:24;33.60;64.80
2447;DHT22;26430;48.818;9.244;2022-08-03T12:20:51;33.60;66.30
2447;DHT22;26430;48.818;9.244;2022-08-03T12:23:18;33.80;67.50
2447;DHT22;26430;48.818;9.244;2022-08-03T12:25:45;33.90;66.80
2447;DHT22;26430;48.818;9.244;2022-08-03T12:28:15;33.60;64.40
2447;DHT22;26430;48.818;9.244;2022-08-03T12:30:42;33.90;66.60
2447;DHT22;26430;48.818;9.244;2022-08-03T12:33:21;34.10;66.80
2447;DHT22;26430;48.818;9.244;2022-08-03T12:36:08;34.30;66.10
2447;DHT22;26430;48.818;9.244;2022-08-03T12:38:38;34.30;65.20
2447;DHT22;26430;48.818;9.244;2022-08-03T12:41:07;34.40;66.90
2447;DHT22;26430;48.818;9.244;2022-08-03T12:43:33;34.50;65.70
2447;DHT22;26430;48.818;9.244;2022-08-03T12:46:14;34.40;64.70
2447;DHT22;26430;48.818;9.244;2022-08-03T12:49:04;34.50;65.50
2447;DHT22;26430;48.818;9.244;2022-08-03T12:51:33;34.50;64.50
2447;DHT22;26430;48.818;9.244;2022-08-03T12:54:00;34.50;65.60
2447;DHT22;26430;48.818;9.244;2022-08-03T12:56:26;34.70;65.00
2447;DHT22;26430;48.818;9.244;2022-08-03T12:58:52;34.60;63.50
2447;DHT22;26430;48.818;9.244;2022-08-03T13:01:18;34.60;65.10
2447;DHT22;26430;48.818;9.244;2022-08-03T13:03:47;34.30;63.20
2447;DHT22;26430;48.818;9.244;2022-08-03T13:06:15;34.40;66.20
2447;DHT22;26430;48.818;9.244;2022-08-03T13:08:42;34.40;63.40
2447;DHT22;26430;48.818;9.244;2022-08-03T13:13:46;33.80;63.80
2447;DHT22;26430;48.818;9.244;2022-08-03T13:16:12;33.90;63.40
2447;DHT22;26430;48.818;9.244;2022-08-03T13:18:37;34.70;60.50
2447;DHT22;26430;48.818;9.244;2022-08-03T13:21:03;35.10;61.30
2447;DHT22;26430;48.818;9.244;2022-08-03T13:23:29;35.40;62.10
2447;DHT22;26430;48.818;9.244;2022-08-03T13:25:55;35.50;61.30
2447;DHT22;26430;48.818;9.244;2022-08-03T13:28:20;35.30;61.70
2447;DHT22;26430;48.818;9.244;2022-08-03T13:30:46;34.90;61.80
2447;DHT22;26430;48.818;9.244;2022-08-03T13:33:12;35.20;60.80
2447;DHT22;26430;48.818;9.244;2022-08-03T13:35:37;35.30;61.20
2447;DHT22;26430;48.818;9.244;2022-08-03T13:38:03;34.70;60.90
2447;DHT22;26430;48.818;9.244;2022-08-03T13:40:29;34.20;61.80
2447;DHT22;26430;48.818;9.244;2022-08-03T13:42:56;34.60;63.10
2447;DHT22;26430;48.818;9.244;2022-08-03T13:45:22;34.40;60.50
2447;DHT22;26430;48.818;9.244;2022-08-03T13:47:49;34.20;60.60
2447;DHT22;26430;48.818;9.244;2022-08-03T13:50:14;34.60;62.80
2447;DHT22;26430;48.818;9.244;2022-08-03T13:52:40;34.80;61.80
2447;DHT22;26430;48.818;9.244;2022-08-03T13:55:06;35.30;61.50
2447;DHT22;26430;48.818;9.244;2022-08-03T13:57:32;35.40;61.10
2447;DHT22;26430;48.818;9.244;2022-08-03T13:59:58;35.40;61.00
2447;DHT22;26430;48.818;9.244;2022-08-03T14:02:24;35.30;60.50
2447;DHT22;26430;48.818;9.244;2022-08-03T14:04:49;35.20;61.20
2447;DHT22;26430;48.818;9.244;2022-08-03T14:07:15;35.10;59.50
2447;DHT22;26430;48.818;9.244;2022-08-03T14:09:41;35.30;60.60
2447;DHT22;26430;48.818;9.244;2022-08-03T14:12:06;35.40;58.40
2447;DHT22;26430;48.818;9.244;2022-08-03T14:14:32;35.30;59.70
2447;DHT22;26430;48.818;9.244;2022-08-03T14:16:58;35.10;59.50
2447;DHT22;26430;48.818;9.244;2022-08-03T14:19:23;34.90;61.70
2447;DHT22;26430;48.818;9.244;2022-08-03T14:21:49;35.00;60.00
2447;DHT22;26430;48.818;9.244;2022-08-03T14:24:15;35.20;60.80
2447;DHT22;26430;48.818;9.244;2022-08-03T14:26:40;35.30;60.20
2447;DHT22;26430;48.818;9.244;2022-08-03T14:29:06;35.30;59.20
2447;DHT22;26430;48.818;9.244;2022-08-03T14:31:32;34.70;59.80
2447;DHT22;26430;48.818;9.244;2022-08-03T14:33:57;34.50;59.90
2447;DHT22;26430;48.818;9.244;2022-08-03T14:36:23;34.80;59.40
2447;DHT22;26430;48.818;9.244;2022-08-03T14:38:49;34.80;60.70
2447;DHT22;26430;48.818;9.244;2022-08-03T14:41:15;35.00;60.00
2447;DHT22;26430;48.818;9.244;2022-08-03T14:43:40;35.10;60.80
2447;DHT22;26430;48.818;9.244;2022-08-03T14:46:06;35.10;59.90
2447;DHT22;26430;48.818;9.244;2022-08-03T14:48:32;35.20;60.30
2447;DHT22;26430;48.818;9.244;2022-08-03T14:50:57;35.40;59.00
2447;DHT22;26430;48.818;9.244;2022-08-03T14:53:23;35.50;57.70
2447;DHT22;26430;48.818;9.244;2022-08-03T14:55:49;35.70;58.10
2447;DHT22;26430;48.818;9.244;2022-08-03T14:58:15;35.90;57.70
2447;DHT22;26430;48.818;9.244;2022-08-03T15:00:41;36.00;57.50
2447;DHT22;26430;48.818;9.244;2022-08-03T15:03:06;35.80;57.40
2447;DHT22;26430;48.818;9.244;2022-08-03T15:05:32;36.00;56.70
2447;DHT22;26430;48.818;9.244;2022-08-03T15:07:58;36.00;57.50
2447;DHT22;26430;48.818;9.244;2022-08-03T15:10:23;35.70;57.40
2447;DHT22;26430;48.818;9.244;2022-08-03T15:12:49;35.20;58.20
2447;DHT22;26430;48.818;9.244;2022-08-03T15:15:14;35.00;58.10
2447;DHT22;26430;48.818;9.244;2022-08-03T15:17:40;35.40;58.80
2447;DHT22;26430;48.818;9.244;2022-08-03T15:20:06;35.30;58.30
2447;DHT22;26430;48.818;9.244;2022-08-03T15:22:33;35.30;56.20
2447;DHT22;26430;48.818;9.244;2022-08-03T15:25:01;35.40;57.30
2447;DHT22;26430;48.818;9.244;2022-08-03T15:27:26;35.70;56.60
2447;DHT22;26430;48.818;9.244;2022-08-03T15:29:52;35.80;55.50
2447;DHT22;26430;48.818;9.244;2022-08-03T15:32:18;35.60;55.50
2447;DHT22;26430;48.818;9.244;2022-08-03T15:34:43;36.00;56.50
2447;DHT22;26430;48.818;9.244;2022-08-03T15:37:10;36.20;56.60
2447;DHT22;26430;48.818;9.244;2022-08-03T15:39:36;36.10;55.90
2447;DHT22;26430;48.818;9.244;2022-08-03T15:42:02;36.20;56.00
2447;DHT22;26430;48.818;9.244;2022-08-03T15:44:27;36.20;56.30
2447;DHT22;26430;48.818;9.244;2022-08-03T15:46:53;35.90;55.10
2447;DHT22;26430;48.818;9.244;2022-08-03T15:49:19;36.00;54.30
2447;DHT22;26430;48.818;9.244;2022-08-03T15:51:46;35.80;54.50
2447;DHT22;26430;48.818;9.244;2022-08-03T15:54:11;35.60;55.10
2447;DHT22;26430;48.818;9.244;2022-08-03T15:56:37;35.90;54.80
2447;DHT22;26430;48.818;9.244;2022-08-03T15:59:03;35.90;54.90
2447;DHT22;26430;48.818;9.244;2022-08-03T16:01:29;35.90;54.40
2447;DHT22;26430;48.818;9.244;2022-08-03T16:03:55;35.90;54.00
2447;DHT22;26430;48.818;9.244;2022-08-03T16:06:20;36.10;52.90
2447;DHT22;26430;48.818;9.244;2022-08-03T16:08:47;36.10;53.60
2447;DHT22;26430;48.818;9.244;2022-08-03T16:11:12;35.90;52.60
2447;DHT22;26430;48.818;9.244;2022-08-03T16:13:38;35.70;52.00
2447;DHT22;26430;48.818;9.244;2022-08-03T16:16:04;35.70;52.70
2447;DHT22;26430;48.818;9.244;2022-08-03T16:18:30;35.10;52.40
2447;DHT22;26430;48.818;9.244;2022-08-03T16:20:56;35.20;54.40
2447;DHT22;26430;48.818;9.244;2022-08-03T16:23:22;35.10;53.30
2447;DHT22;26430;48.818;9.244;2022-08-03T16:25:48;34.90;53.30
2447;DHT22;26430;48.818;9.244;2022-08-03T16:28:14;34.90;53.30
2447;DHT22;26430;48.818;9.244;2022-08-03T16:30:41;34.90;52.40
2447;DHT22;26430;48.818;9.244;2022-08-03T16:33:07;35.20;53.00